Time;durP1;ratioP1;P1;durP2;ratioP2;P2;SDS_P1;SDS_P2;PMS_P1;PMS_P2;Temp;Humidity;BMP_temperature;BMP_pressure;BME280_temperature;BME280_humidity;BME280_pressure;Samples;Min_cycle;Max_cycle;Signal;HPM_P1;HPM_P2
2022/12/04 00:01:20;;;;;;;43.63;22.05;;;;;;;3.13;100.00;99364.16;4468909;32;20437;-71
2022/12/04 00:03:51;;;;;;;44.33;19.70;;;;;;;3.13;100.00;99364.97;4468604;32;20144;-71
2022/12/04 00:06:22;;;;;;;41.47;20.33;;;;;;;3.15;100.00;99367.50;4466316;32;20093;-71
2022/12/04 00:08:50;;;;;;;46.53;20.83;;;;;;;3.13;100.00;99371.91;4476857;32;20148;-71
2022/12/04 00:11:20;;;;;;;40.72;17.70;;;;;;;3.09;100.00;99363.47;4485624;31;20149;-71
2022/12/04 00:13:48;;;;;;;49.60;21.30;;;;;;;3.07;100.00;99359.28;4485373;31;20405;-71
2022/12/04 00:16:18;;;;;;;49.97;22.65;;;;;;;3.01;100.00;99356.09;4485616;31;20131;-72
2022/12/04 00:18:45;;;;;;;51.65;20.95;;;;;;;3.09;100.00;99362.63;4485370;31;20100;-71
2022/12/04 00:21:14;;;;;;;41.90;18.77;;;;;;;3.09;100.00;99365.22;4476381;31;20188;-72
2022/12/04 00:23:42;;;;;;;44.53;20.45;;;;;;;3.08;100.00;99368.72;4469412;32;20092;-71
2022/12/04 00:26:12;;;;;;;45.45;21.00;;;;;;;3.09;100.00;99378.16;4469628;32;20131;-72
2022/12/04 00:28:40;;;;;;;43.30;18.62;;;;;;;3.09;100.00;99370.38;4467313;32;20169;-71
2022/12/04 00:31:10;;;;;;;47.70;20.33;;;;;;;3.09;100.00;99378.16;4469801;32;20088;-72
2022/12/04 00:33:38;;;;;;;39.00;18.95;;;;;;;2.99;100.00;99378.59;4469498;32;20472;-71
2022/12/04 00:36:07;;;;;;;39.42;17.60;;;;;;;3.01;100.00;99381.97;4469721;32;20101;-71
2022/12/04 00:38:35;;;;;;;44.58;19.77;;;;;;;2.95;100.00;99377.09;4469581;32;20096;-71
2022/12/04 00:41:02;;;;;;;42.13;17.30;;;;;;;2.91;100.00;99377.31;4469586;32;20153;-71
2022/12/04 00:43:30;;;;;;;43.58;17.77;;;;;;;2.94;100.00;99380.59;4469390;32;20108;-71
2022/12/04 00:45:57;;;;;;;39.53;17.30;;;;;;;2.97;100.00;99374.44;4469603;32;20139;-71
2022/12/04 00:48:25;;;;;;;37.88;16.12;;;;;;;2.94;100.00;99369.41;4469457;32;20113;-71
2022/12/04 00:50:53;;;;;;;37.67;16.95;;;;;;;2.93;100.00;99365.97;4469873;32;20558;-71
2022/12/04 00:53:31;;;;;;;42.03;16.58;;;;;;;2.89;100.00;99364.41;4469681;32;20089;-71
2022/12/04 00:56:02;;;;;;;42.22;17.85;;;;;;;2.88;100.00;99364.50;4469507;32;20172;-71
2022/12/04 00:58:30;;;;;;;37.92;17.12;;;;;;;2.90;100.00;99373.88;4469238;32;20181;-71
2022/12/04 01:01:07;;;;;;;45.15;18.50;;;;;;;2.84;100.00;99369.81;4469590;32;20088;-71
2022/12/04 01:03:35;;;;;;;34.28;17.10;;;;;;;2.84;100.00;99369.00;4469014;32;20088;-71
2022/12/04 01:06:03;;;;;;;33.67;16.30;;;;;;;2.90;100.00;99376.47;4469219;32;20157;-71
2022/12/04 01:08:31;;;;;;;42.65;17.85;;;;;;;2.95;100.00;99376.22;4474388;32;20169;-71
2022/12/04 01:10:58;;;;;;;41.58;18.83;;;;;;;3.04;100.00;99369.78;4485086;31;20217;-71
2022/12/04 01:13:25;;;;;;;43.17;18.33;;;;;;;3.04;100.00;99362.00;4484985;31;20093;-71
2022/12/04 01:15:52;;;;;;;41.58;18.40;;;;;;;2.98;100.00;99366.59;4485155;31;20123;-71
2022/12/04 01:18:20;;;;;;;38.60;19.65;;;;;;;3.05;100.00;99366.28;4484974;31;20161;-72
2022/12/04 01:20:49;;;;;;;38.17;16.15;;;;;;;3.00;100.00;99361.34;4478626;31;20156;-71
2022/12/04 01:23:17;;;;;;;46.83;20.17;;;;;;;3.05;100.00;99363.69;4468948;32;20519;-72
2022/12/04 01:25:57;;;;;;;35.22;17.35;;;;;;;3.09;100.00;99354.84;4469179;32;20162;-71
2022/12/04 01:28:24;;;;;;;47.55;19.50;;;;;;;3.04;100.00;99367.19;4469170;32;20097;-71
2022/12/04 01:31:03;;;;;;;46.20;17.95;;;;;;;3.02;100.00;99362.91;4469295;32;20116;-71
2022/12/04 01:33:32;;;;;;;43.00;19.33;;;;;;;3.13;100.00;99364.16;4468805;32;20139;-71
2022/12/04 01:36:00;;;;;;;45.05;18.87;;;;;;;3.17;100.00;99371.69;4469367;32;20454;-71
2022/12/04 01:38:28;;;;;;;41.53;18.20;;;;;;;3.17;100.00;99373.44;4469304;32;20472;-71
2022/12/04 01:40:56;;;;;;;46.85;21.48;;;;;;;3.14;100.00;99371.84;4469109;32;20120;-71
2022/12/04 01:43:24;;;;;;;47.05;20.73;;;;;;;3.15;100.00;99362.31;4469038;32;20116;-72
2022/12/04 01:45:55;;;;;;;45.78;21.15;;;;;;;3.08;100.00;99359.19;4469135;32;20458;-71
2022/12/04 01:48:29;;;;;;;46.13;22.77;;;;;;;3.11;100.00;99369.41;4468960;32;20112;-71
2022/12/04 01:51:06;;;;;;;46.65;21.70;;;;;;;3.09;100.00;99357.44;4469017;32;20465;-71
2022/12/04 01:53:37;;;;;;;49.67;22.33;;;;;;;3.02;100.00;99360.34;4468974;32;20102;-71
2022/12/04 01:56:05;;;;;;;52.05;22.52;;;;;;;2.97;100.00;99354.56;4468902;32;20140;-71
2022/12/04 01:58:38;;;;;;;52.15;22.70;;;;;;;2.94;100.00;99354.69;4468695;32;20139;-71
2022/12/04 02:01:06;;;;;;;56.45;23.25;;;;;;;2.83;100.00;99341.44;4467701;32;20136;-71
2022/12/04 02:03:36;;;;;;;45.75;19.27;;;;;;;2.83;100.00;99341.44;4468763;32;20135;-71
2022/12/04 02:06:04;;;;;;;42.30;19.42;;;;;;;2.80;100.00;99342.44;4468779;32;20111;-71
2022/12/04 02:08:32;;;;;;;40.60;18.40;;;;;;;2.72;100.00;99334.19;4473614;32;20455;-71
2022/12/04 02:11:30;;;;;;;42.92;18.02;;;;;;;2.64;100.00;99342.31;4483131;32;20179;-71
2022/12/04 02:14:14;;;;;;;32.22;16.20;;;;;;;2.51;100.00;99346.37;4475988;32;20499;-71
2022/12/04 02:16:50;;;;;;;35.80;15.00;;;;;;;2.56;100.00;99335.81;4484501;31;20168;-71
2022/12/04 02:19:39;;;;;;;42.80;17.58;;;;;;;2.55;100.00;99332.41;4484276;31;20085;-71
2022/12/04 02:22:24;;;;;;;41.13;17.45;;;;;;;2.47;100.00;99335.34;4469583;31;20210;-71
2022/12/04 02:24:57;;;;;;;43.28;15.90;;;;;;;2.46;100.00;99331.09;4466845;32;20084;-71
2022/12/04 02:27:30;;;;;;;38.53;15.20;;;;;;;2.46;100.00;99332.84;4468506;32;20454;-71
2022/12/04 02:30:04;;;;;;;35.75;15.85;;;;;;;2.46;100.00;99332.84;4468194;32;20100;-71
2022/12/04 02:32:44;;;;;;;45.97;16.05;;;;;;;2.52;100.00;99329.97;4468369;32;20210;-71
2022/12/04 02:35:20;;;;;;;36.40;12.27;;;;;;;2.46;100.00;99330.25;4466863;32;20108;-71
2022/12/04 02:37:55;;;;;;;38.88;14.95;;;;;;;2.41;100.00;99319.31;4467081;32;20212;-71
2022/12/04 02:40:29;;;;;;;37.10;17.40;;;;;;;2.44;100.00;99329.50;4466732;32;20101;-71
2022/12/04 02:43:07;;;;;;;33.85;13.90;;;;;;;2.42;100.00;99332.16;4467100;32;20124;-71
2022/12/04 02:45:47;;;;;;;39.78;16.50;;;;;;;2.43;100.00;99328.66;4466597;32;20782;-71
2022/12/04 02:48:17;;;;;;;40.83;17.85;;;;;;;2.30;100.00;99343.91;4466918;32;20176;-71
2022/12/04 02:50:47;;;;;;;43.15;16.23;;;;;;;2.24;100.00;99339.03;4467998;32;20413;-71
2022/12/04 02:53:23;;;;;;;36.70;15.75;;;;;;;2.22;100.00;99330.47;4468779;32;20470;-71
2022/12/04 02:55:53;;;;;;;40.88;16.15;;;;;;;2.21;100.00;99326.25;4470343;32;20096;-71
2022/12/04 02:58:38;;;;;;;39.08;17.17;;;;;;;2.19;100.00;99328.03;4469154;32;20160;-71
2022/12/04 03:01:18;;;;;;;39.90;16.20;;;;;;;2.11;100.00;99319.81;4469187;32;20160;-71
2022/12/04 03:03:59;;;;;;;39.05;16.00;;;;;;;2.14;100.00;99324.84;4470083;32;20435;-71
2022/12/04 03:06:29;;;;;;;35.53;15.07;;;;;;;2.13;100.00;99307.63;4470111;32;20104;-71
2022/12/04 03:09:09;;;;;;;43.97;16.80;;;;;;;2.11;100.00;99312.88;4476938;32;20096;-71
2022/12/04 03:11:37;;;;;;;40.10;17.02;;;;;;;2.09;100.00;99324.19;4485869;31;20085;-71
2022/12/04 03:14:13;;;;;;;36.15;17.17;;;;;;;2.04;100.00;99323.56;4486268;31;20100;-71
2022/12/04 03:16:41;;;;;;;28.50;12.48;;;;;;;2.01;100.00;99326.28;4485902;31;20106;-71
2022/12/04 03:19:13;;;;;;;41.20;16.33;;;;;;;2.08;100.00;99327.69;4485845;31;20145;-71
2022/12/04 03:21:45;;;;;;;31.75;13.95;;;;;;;2.08;100.00;99328.53;4472672;32;20117;-71
2022/12/04 03:24:23;;;;;;;34.15;15.05;;;;;;;2.11;100.00;99332.72;4468807;32;20147;-71
2022/12/04 03:26:59;;;;;;;40.22;16.12;;;;;;;2.06;100.00;99317.44;4468729;32;20155;-71
2022/12/04 03:29:34;;;;;;;35.20;14.98;;;;;;;1.98;100.00;99316.09;4470025;32;20450;-71
2022/12/04 03:32:12;;;;;;;33.63;13.95;;;;;;;2.05;100.00;99317.50;4468647;32;20170;-72
2022/12/04 03:34:55;;;;;;;35.72;15.23;;;;;;;2.02;100.00;99325.41;4469975;32;20493;-71
2022/12/04 03:37:30;;;;;;;51.05;16.20;;;;;;;2.00;100.00;99324.59;4468912;32;20099;-71
2022/12/04 03:40:05;;;;;;;33.45;12.50;;;;;;;1.98;100.00;99321.25;4468651;32;20111;-71
2022/12/04 03:42:37;;;;;;;38.95;15.85;;;;;;;1.92;100.00;99328.41;4468695;32;20108;-71
2022/12/04 03:45:12;;;;;;;38.78;16.30;;;;;;;1.97;100.00;99327.31;4469939;32;20532;-71
2022/12/04 03:47:52;;;;;;;30.17;13.55;;;;;;;2.02;100.00;99325.41;4468601;32;20504;-71
2022/12/04 03:50:38;;;;;;;35.47;14.70;;;;;;;2.01;100.00;99328.88;4469908;32;20596;-71
2022/12/04 03:53:19;;;;;;;42.20;16.62;;;;;;;1.95;100.00;99328.25;4469946;32;20093;-71
2022/12/04 03:55:53;;;;;;;30.62;14.60;;;;;;;2.01;100.00;99331.47;4468520;32;20123;-71
2022/12/04 03:58:24;;;;;;;32.03;14.43;;;;;;;2.00;100.00;99329.78;4468626;32;20114;-71
2022/12/04 04:00:52;;;;;;;38.95;15.70;;;;;;;1.89;100.00;99333.69;4468405;32;20645;-71
2022/12/04 04:03:24;;;;;;;36.47;14.95;;;;;;;1.87;100.00;99316.59;4468714;32;20139;-71
2022/12/04 04:05:54;;;;;;;34.50;15.70;;;;;;;1.82;100.00;99316.78;4468241;32;20172;-71
2022/12/04 04:08:26;;;;;;;21.05;10.85;;;;;;;1.79;100.00;99309.19;4472728;32;20135;-71
2022/12/04 04:11:02;;;;;;;33.03;15.75;;;;;;;1.78;100.00;99310.91;4485374;31;20065;-71
2022/12/04 04:24:54;;;;;;;30.25;13.75;;;;;;;1.70;100.00;99323.31;4468511;32;20097;-71
2022/12/04 04:27:21;;;;;;;37.40;15.10;;;;;;;1.66;100.00;99326.94;4468370;32;20119;-71
2022/12/04 04:29:50;;;;;;;36.45;15.23;;;;;;;1.63;100.00;99336.59;4469625;32;20111;-71
2022/12/04 04:32:27;;;;;;;36.58;15.35;;;;;;;1.54;100.00;99341.22;4469530;32;20081;-71
2022/12/04 04:35:12;;;;;;;36.53;14.75;;;;;;;1.53;100.00;99336.97;4469706;32;20143;-71
2022/12/04 04:37:55;;;;;;;31.85;14.05;;;;;;;1.52;100.00;99344.78;4469542;32;20084;-71
2022/12/04 04:40:35;;;;;;;38.35;13.50;;;;;;;1.56;100.00;99346.31;4468372;32;20188;-71
2022/12/04 04:43:10;;;;;;;29.35;12.77;;;;;;;1.61;100.00;99338.41;4469578;32;20072;-71
2022/12/04 04:45:47;;;;;;;26.67;12.43;;;;;;;1.50;100.00;99337.13;4468353;32;20163;-71
2022/12/04 04:48:17;;;;;;;27.87;12.13;;;;;;;1.56;100.00;99330.81;4469544;32;20149;-71
2022/12/04 04:50:45;;;;;;;29.17;12.82;;;;;;;1.55;100.00;99339.50;4469527;32;20540;-71
2022/12/04 04:53:17;;;;;;;32.30;13.35;;;;;;;1.53;100.00;99339.56;4468190;32;20085;-71
2022/12/04 04:55:44;;;;;;;27.17;12.20;;;;;;;1.57;100.00;99335.91;4468156;32;20104;-71
2022/12/04 04:58:15;;;;;;;32.30;13.60;;;;;;;1.57;100.00;99337.69;4468135;32;20101;-71
2022/12/04 05:00:51;;;;;;;21.30;11.15;;;;;;;1.56;100.00;99342.00;4469367;32;20097;-71
2022/12/04 05:03:19;;;;;;;32.85;14.10;;;;;;;1.55;100.00;99347.25;4469212;32;20382;-71
2022/12/04 05:05:46;;;;;;;31.08;13.30;;;;;;;1.49;100.00;99345.75;4469417;32;20103;-71
2022/12/04 05:08:13;;;;;;;28.60;12.05;;;;;;;1.46;100.00;99351.06;4472525;32;20129;-71
2022/12/04 05:10:40;;;;;;;22.08;10.57;;;;;;;1.47;100.00;99346.72;4485262;32;20119;-71
2022/12/04 05:13:08;;;;;;;30.75;12.55;;;;;;;1.47;100.00;99347.56;4485036;31;20096;-71
2022/12/04 05:15:35;;;;;;;24.65;10.02;;;;;;;1.49;100.00;99343.16;4483084;32;20158;-71
2022/12/04 05:18:03;;;;;;;28.58;11.70;;;;;;;1.47;100.00;99339.81;4484841;32;20134;-71
2022/12/04 05:20:30;;;;;;;29.90;12.88;;;;;;;1.46;100.00;99339.91;4480852;31;20647;-71
2022/12/04 05:22:58;;;;;;;23.58;10.05;;;;;;;1.47;100.00;99337.25;4469069;32;20093;-71
2022/12/04 05:25:25;;;;;;;29.85;12.95;;;;;;;1.48;100.00;99344.06;4469123;32;20539;-71
2022/12/04 05:27:55;;;;;;;28.25;10.82;;;;;;;1.50;100.00;99333.66;4469118;32;20092;-71
2022/12/04 05:30:22;;;;;;;21.55;8.80;;;;;;;1.44;100.00;99332.22;4469215;32;20450;-71
2022/12/04 05:32:50;;;;;;;25.15;10.70;;;;;;;1.49;100.00;99325.09;4468929;32;20108;-71
2022/12/04 05:35:17;;;;;;;31.52;12.65;;;;;;;1.47;100.00;99334.66;4469154;32;20566;-71
2022/12/04 05:37:44;;;;;;;23.87;10.60;;;;;;;1.44;100.00;99342.53;4468949;32;20170;-72
2022/12/04 05:40:11;;;;;;;21.42;10.32;;;;;;;1.46;100.00;99340.72;4469058;32;20123;-72
2022/12/04 05:42:39;;;;;;;27.08;13.07;;;;;;;1.48;100.00;99338.91;4468927;32;20114;-72
2022/12/04 05:45:06;;;;;;;24.17;9.27;;;;;;;1.48;100.00;99338.91;4468955;32;20109;-71
2022/12/04 05:47:41;;;;;;;29.00;11.10;;;;;;;1.39;100.00;99331.56;4468774;32;20450;-71
2022/12/04 05:50:10;;;;;;;29.15;10.85;;;;;;;1.40;100.00;99340.97;4469066;32;20450;-72
2022/12/04 05:52:38;;;;;;;22.98;10.05;;;;;;;1.39;100.00;99339.28;4468746;32;20109;-72
2022/12/04 05:55:05;;;;;;;24.77;11.30;;;;;;;1.39;100.00;99339.28;4468813;32;20097;-71
2022/12/04 05:57:32;;;;;;;25.83;11.12;;;;;;;1.37;100.00;99333.38;4468816;32;20161;-71
2022/12/04 05:59:59;;;;;;;26.98;11.07;;;;;;;1.40;100.00;99330.66;4468611;32;20135;-72
2022/12/04 06:02:26;;;;;;;28.62;12.25;;;;;;;1.39;100.00;99350.47;4468751;32;20461;-71
2022/12/04 06:04:54;;;;;;;21.50;9.18;;;;;;;1.31;100.00;99342.22;4468308;32;20156;-71
2022/12/04 06:07:21;;;;;;;20.00;9.65;;;;;;;1.37;100.00;99341.94;4468723;32;20073;-71
2022/12/04 06:09:48;;;;;;;24.15;10.50;;;;;;;1.41;100.00;99342.66;4482073;32;20135;-72
2022/12/04 06:12:15;;;;;;;25.58;10.82;;;;;;;1.41;100.00;99342.66;4484136;31;20161;-71
2022/12/04 06:14:42;;;;;;;25.20;10.02;;;;;;;1.41;100.00;99345.25;4484207;31;20119;-71
2022/12/04 06:17:09;;;;;;;23.98;10.45;;;;;;;1.45;100.00;99344.19;4484242;31;20160;-71
2022/12/04 06:19:36;;;;;;;20.45;8.75;;;;;;;1.48;100.00;99351.81;4484178;31;20115;-72
2022/12/04 06:22:03;;;;;;;22.20;10.40;;;;;;;1.47;100.00;99341.56;4469468;32;20100;-71
2022/12/04 06:24:30;;;;;;;25.73;10.73;;;;;;;1.51;100.00;99349.09;4468335;32;20158;-71
2022/12/04 06:26:58;;;;;;;18.30;9.10;;;;;;;1.53;100.00;99349.88;4468985;32;20115;-71
2022/12/04 06:29:45;;;;;;;20.05;9.00;;;;;;;1.62;100.00;99360.72;4470110;32;20088;-71
2022/12/04 06:32:13;;;;;;;21.48;9.18;;;;;;;1.66;100.00;99364.84;4470418;32;20485;-71
2022/12/04 06:34:51;;;;;;;;;;;;;;;1.71;100.00;99366.34;4470751;32;20093;-71
2022/12/04 06:37:23;;;;;;;17.00;6.80;;;;;;;1.73;100.00;99363.69;4470640;32;20019;-71
2022/12/04 06:39:50;;;;;;;19.73;9.45;;;;;;;1.75;100.00;99351.53;4470660;32;20175;-71
2022/12/04 06:42:17;;;;;;;23.70;10.00;;;;;;;1.74;100.00;99344.69;4470254;32;20113;-71
2022/12/04 06:44:44;;;;;;;26.12;11.38;;;;;;;1.83;100.00;99344.28;4470325;32;20204;-71
2022/12/04 06:47:11;;;;;;;22.27;9.73;;;;;;;1.85;100.00;99337.31;4470280;32;20157;-71
2022/12/04 06:49:39;;;;;;;18.25;8.73;;;;;;;1.87;100.00;99332.91;4470417;32;20108;-71
2022/12/04 06:52:06;;;;;;;20.20;9.68;;;;;;;1.95;100.00;99338.59;4470413;32;20101;-71
2022/12/04 06:54:33;;;;;;;23.05;9.80;;;;;;;2.04;100.00;99346.81;4470025;32;20429;-71
2022/12/04 06:57:00;;;;;;;18.80;7.82;;;;;;;2.09;100.00;99343.13;4470475;32;20164;-71
2022/12/04 06:59:27;;;;;;;20.58;9.95;;;;;;;2.16;100.00;99346.25;4470260;32;20434;-71
2022/12/04 07:01:54;;;;;;;18.95;9.38;;;;;;;2.18;100.00;99334.12;4470342;32;20080;-71
2022/12/04 07:04:22;;;;;;;19.20;8.88;;;;;;;2.22;100.00;99334.81;4470446;32;20156;-71
2022/12/04 07:06:49;;;;;;;17.52;8.38;;;;;;;2.24;100.00;99333.84;4470239;32;20544;-71
2022/12/04 07:09:16;;;;;;;21.67;9.07;;;;;;;2.33;100.00;99337.72;4480149;32;20088;-71
2022/12/04 07:11:44;;;;;;;17.73;8.27;;;;;;;2.39;100.00;99334.88;4485936;31;20529;-71
2022/12/04 07:14:12;;;;;;;19.42;8.15;;;;;;;2.49;100.00;99340.47;4485844;31;20143;-71
2022/12/04 07:16:40;;;;;;;16.90;7.97;;;;;;;2.60;100.00;99343.38;4485865;31;20427;-71
2022/12/04 07:19:09;;;;;;;17.62;8.60;;;;;;;2.63;100.00;99340.66;4485659;31;20088;-71
2022/12/04 07:21:37;;;;;;;12.65;7.03;;;;;;;2.69;100.00;99349.84;4474079;31;20144;-71
2022/12/04 07:24:05;;;;;;;21.67;9.18;;;;;;;2.77;100.00;99345.16;4470086;32;20473;-71
2022/12/04 07:26:32;;;;;;;20.85;8.63;;;;;;;2.84;100.00;99343.13;4469960;32;20160;-71
2022/12/04 07:28:59;;;;;;;15.43;7.65;;;;;;;2.89;100.00;99340.31;4470256;32;20426;-71
2022/12/04 07:31:27;;;;;;;16.85;7.20;;;;;;;2.91;100.00;99344.50;4470029;32;20097;-71
2022/12/04 07:33:56;;;;;;;18.02;8.23;;;;;;;2.98;100.00;99351.06;4469892;32;20094;-71
2022/12/04 07:36:24;;;;;;;18.60;8.75;;;;;;;3.03;100.00;99345.66;4470041;32;20514;-71
2022/12/04 07:38:51;;;;;;;19.73;8.27;;;;;;;3.11;100.00;99353.03;4469621;32;20466;-71
2022/12/04 07:41:18;;;;;;;18.65;9.05;;;;;;;3.12;100.00;99334.84;4470005;32;20158;-71
2022/12/04 07:43:46;;;;;;;17.42;8.20;;;;;;;3.16;100.00;99346.75;4469816;32;20174;-71
2022/12/04 07:46:16;;;;;;;20.42;10.80;;;;;;;3.19;100.00;99353.50;4469839;32;20084;-71
2022/12/04 07:48:43;;;;;;;24.33;10.52;;;;;;;3.19;100.00;99358.66;4469893;32;20442;-71
2022/12/04 07:51:18;;;;;;;18.52;7.18;;;;;;;3.24;100.00;99355.84;4469813;32;20128;-71
2022/12/04 07:53:46;;;;;;;23.40;8.73;;;;;;;3.29;100.00;99357.31;4469990;32;20104;-71
2022/12/04 07:56:15;;;;;;;21.80;10.23;;;;;;;3.33;100.00;99351.06;4469729;32;20084;-71
2022/12/04 07:58:42;;;;;;;21.65;9.10;;;;;;;3.22;100.00;99344.75;4469523;32;20144;-71
2022/12/04 08:01:09;;;;;;;23.95;9.35;;;;;;;3.22;100.00;99342.97;4469852;32;20505;-71
2022/12/04 08:03:38;;;;;;;21.30;9.77;;;;;;;3.29;100.00;99344.34;4469532;32;20180;-71
2022/12/04 08:06:13;;;;;;;19.20;8.60;;;;;;;3.18;100.00;99357.00;4469608;32;20157;-71
2022/12/04 08:08:40;;;;;;;23.35;10.85;;;;;;;3.25;100.00;99349.78;4475572;32;20151;-71
2022/12/04 08:11:12;;;;;;;25.30;11.30;;;;;;;3.23;100.00;99357.62;4485374;31;20123;-71
2022/12/04 08:13:39;;;;;;;26.23;11.35;;;;;;;3.27;100.00;99364.31;4485165;31;20494;-71
2022/12/04 08:16:09;;;;;;;21.75;10.45;;;;;;;3.29;100.00;99356.47;4485456;31;20092;-71
2022/12/04 08:18:36;;;;;;;20.95;9.13;;;;;;;3.36;100.00;99350.91;4485318;31;20092;-71
2022/12/04 08:21:08;;;;;;;22.92;9.88;;;;;;;3.41;100.00;99344.66;4477042;31;20895;-71
2022/12/04 08:23:39;;;;;;;27.27;11.05;;;;;;;3.40;100.00;99348.16;4469856;32;20081;-71
2022/12/04 08:26:06;;;;;;;18.42;8.95;;;;;;;3.44;100.00;99347.94;4469401;32;20610;-71
2022/12/04 08:28:34;;;;;;;21.75;9.52;;;;;;;3.47;100.00;99354.72;4469635;32;20119;-71
2022/12/04 08:31:16;;;;;;;30.10;11.02;;;;;;;3.59;100.00;99361.88;4469422;32;20161;-71
2022/12/04 08:33:44;;;;;;;22.35;10.85;;;;;;;3.65;100.00;99358.09;4469473;32;20092;-71
2022/12/04 08:36:15;;;;;;;19.75;8.60;;;;;;;3.69;100.00;99352.72;4469472;32;20601;-72
2022/12/04 08:38:42;;;;;;;15.85;8.43;;;;;;;3.78;100.00;99345.37;4469809;32;20650;-72
2022/12/04 08:41:12;;;;;;;23.92;10.45;;;;;;;3.79;100.00;99347.88;4469416;32;20214;-71
2022/12/04 08:43:39;;;;;;;20.73;9.60;;;;;;;3.99;100.00;99352.00;4469634;32;20145;-71
2022/12/04 08:46:11;;;;;;;25.00;9.88;;;;;;;4.00;100.00;99356.28;4469471;32;20777;-72
2022/12/04 08:48:40;;;;;;;25.98;11.38;;;;;;;4.11;100.00;99352.28;4469554;32;20092;-72
2022/12/04 08:51:13;;;;;;;25.02;11.25;;;;;;;4.23;100.00;99356.81;4468739;32;20609;-72
2022/12/04 08:53:40;;;;;;;21.60;10.63;;;;;;;4.28;100.00;99356.56;4469768;32;20450;-71
2022/12/04 08:56:07;;;;;;;21.80;10.18;;;;;;;4.31;100.00;99349.44;4469431;32;20084;-71
2022/12/04 08:58:34;;;;;;;22.95;9.60;;;;;;;4.40;100.00;99346.34;4469360;32;20096;-71
2022/12/04 09:01:06;;;;;;;28.80;11.95;;;;;;;4.39;100.00;99352.47;4469223;32;20119;-72
2022/12/04 09:03:34;;;;;;;26.25;13.07;;;;;;;4.50;100.00;99345.87;4469478;32;20574;-72
2022/12/04 09:06:03;;;;;;;31.98;14.02;;;;;;;4.52;100.00;99352.63;4469038;32;20157;-71
2022/12/04 09:08:31;;;;;;;26.77;12.23;;;;;;;4.54;100.00;99348.22;4474332;32;20135;-71
2022/12/04 09:11:03;;;;;;;24.42;12.20;;;;;;;4.47;100.00;99339.09;4484854;31;20099;-71
2022/12/04 09:13:30;;;;;;;28.58;13.38;;;;;;;4.47;100.00;99344.28;4485052;31;20141;-71
2022/12/04 09:15:58;;;;;;;28.48;14.05;;;;;;;4.59;100.00;99343.59;4484795;31;20118;-71
2022/12/04 09:18:25;;;;;;;25.15;12.30;;;;;;;4.64;100.00;99338.16;4485288;31;20152;-71
2022/12/04 09:21:00;;;;;;;30.42;12.15;;;;;;;4.72;100.00;99343.72;4477885;31;20096;-71
2022/12/04 09:23:27;;;;;;;26.62;13.07;;;;;;;4.77;100.00;99336.53;4469336;32;20120;-71
2022/12/04 09:25:55;;;;;;;26.80;12.85;;;;;;;4.75;100.00;99338.41;4468968;32;20855;-71
2022/12/04 09:28:22;;;;;;;24.75;11.85;;;;;;;4.83;100.00;99334.50;4469222;32;20148;-71
2022/12/04 09:31:03;;;;;;;28.10;12.77;;;;;;;4.83;100.00;99327.59;4468891;32;20426;-71
2022/12/04 09:33:31;;;;;;;26.90;12.30;;;;;;;4.96;100.00;99330.31;4468998;32;20187;-71
2022/12/04 09:36:00;;;;;;;24.87;12.45;;;;;;;4.98;100.00;99328.44;4468928;32;20085;-71
2022/12/04 09:38:27;;;;;;;20.33;10.68;;;;;;;5.00;100.00;99324.03;4469156;32;20152;-71
2022/12/04 09:40:58;;;;;;;28.90;12.68;;;;;;;5.09;100.00;99326.09;4468848;32;20096;-71
2022/12/04 09:43:46;;;;;;;22.65;10.70;;;;;;;5.11;100.00;99321.63;4469014;32;20192;-71
2022/12/04 09:46:18;;;;;;;25.40;11.27;;;;;;;5.15;100.00;99310.16;4467442;32;20175;-71
2022/12/04 09:48:47;;;;;;;30.73;12.75;;;;;;;5.25;100.00;99312.19;4468950;32;20617;-71
2022/12/04 09:51:17;;;;;;;28.98;12.18;;;;;;;5.33;100.00;99310.00;4467662;32;20088;-71
2022/12/04 09:53:46;;;;;;;27.42;12.20;;;;;;;5.41;100.00;99299.97;4467557;32;20409;-71
2022/12/04 09:56:18;;;;;;;24.40;11.32;;;;;;;5.48;100.00;99298.69;4467436;32;20176;-71
2022/12/04 09:58:49;;;;;;;21.33;10.00;;;;;;;5.56;100.00;99292.22;4467326;32;20457;-71
2022/12/04 10:01:24;;;;;;;22.30;10.00;;;;;;;5.62;100.00;99284.03;4469638;32;20110;-71
2022/12/04 10:03:53;;;;;;;21.67;9.25;;;;;;;5.67;100.00;99294.97;4469259;32;20128;-71
2022/12/04 10:06:26;;;;;;;17.25;8.30;;;;;;;5.56;100.00;99276.63;4470602;32;20180;-72
2022/12/04 10:09:12;;;;;;;20.02;9.57;;;;;;;5.69;100.00;99293.13;4476935;32;20877;-71
2022/12/04 10:12:31;;;;;;;20.08;9.77;;;;;;;5.77;100.00;99282.25;4486131;31;20068;-71
2022/12/04 10:15:25;;;;;;;20.62;8.50;;;;;;;5.74;100.00;99282.44;4360859;32;20115;-71
2022/12/04 10:17:58;;;;;;;22.65;10.55;;;;;;;5.68;100.00;99260.28;4361114;32;20561;-71
2022/12/04 10:20:53;;;;;;;23.67;11.40;;;;;;;5.63;100.00;99277.91;4361233;32;20123;-71
2022/12/04 10:23:20;;;;;;;20.10;10.02;;;;;;;5.65;100.00;99274.28;4361120;32;20107;-71
2022/12/04 10:25:49;;;;;;;22.42;10.00;;;;;;;5.66;100.00;99272.50;4360841;32;20167;-71
2022/12/04 10:28:36;;;;;;;21.23;10.30;;;;;;;5.70;100.00;99281.81;4361266;32;20127;-71
2022/12/04 10:31:05;;;;;;;23.70;11.25;;;;;;;5.72;100.00;99272.13;4361146;32;20806;-71
2022/12/04 10:33:37;;;;;;;18.87;9.23;;;;;;;5.81;100.00;99270.75;4360935;32;20125;-71
2022/12/04 10:36:05;;;;;;;23.08;11.23;;;;;;;5.89;100.00;99268.53;4360978;32;20166;-71
2022/12/04 10:38:46;;;;;;;20.62;10.00;;;;;;;5.90;100.00;99264.16;4360960;32;20189;-71
2022/12/04 10:41:41;;;;;;;27.33;10.82;;;;;;;5.85;100.00;99252.25;4361034;32;20611;-71
2022/12/04 10:44:18;;;;;;;26.98;11.00;;;;;;;5.89;100.00;99252.06;4361272;32;20118;-71
2022/12/04 10:46:45;;;;;;;22.73;10.55;;;;;;;5.90;100.00;99238.13;4360809;32;20487;-71
2022/12/04 10:49:17;;;;;;;21.92;11.23;;;;;;;5.74;100.00;99253.84;4360976;32;20133;-71
2022/12/04 10:51:45;;;;;;;20.98;10.02;;;;;;;5.77;100.00;99245.84;4442833;32;20144;-71
2022/12/04 10:54:20;;;;;;;21.98;11.00;;;;;;;5.82;100.00;99244.66;4470236;32;20583;-71
2022/12/04 10:56:55;;;;;;;21.90;10.60;;;;;;;5.91;100.00;99234.62;4470193;32;20215;-71
2022/12/04 10:59:24;;;;;;;21.75;10.82;;;;;;;5.86;100.00;99230.53;4470458;32;20147;-71
2022/12/04 11:01:58;;;;;;;25.05;11.20;;;;;;;5.94;100.00;99235.25;4468918;32;20093;-71
2022/12/04 11:04:33;;;;;;;25.33;11.70;;;;;;;5.94;100.00;99229.22;4468764;32;20089;-71
2022/12/04 11:07:06;;;;;;;26.33;12.25;;;;;;;5.85;100.00;99217.63;4468484;32;20162;-71
2022/12/04 11:09:34;;;;;;;22.75;11.80;;;;;;;5.96;100.00;99217.78;4480729;32;20108;-71
2022/12/04 11:12:08;;;;;;;17.33;8.88;;;;;;;6.01;100.00;99214.91;4485702;31;20118;-71
2022/12/04 11:14:35;;;;;;;;;;;;;;;5.96;100.00;99201.34;4485935;31;20089;-71
2022/12/04 11:17:05;;;;;;;26.85;11.52;;;;;;;5.92;100.00;99194.66;4484689;32;19987;-71
2022/12/04 11:19:35;;;;;;;22.67;10.32;;;;;;;5.96;100.00;99190.94;4484507;32;20134;-71
2022/12/04 11:22:10;;;;;;;29.35;12.25;;;;;;;6.08;100.00;99199.78;4469886;32;20176;-71
2022/12/04 11:24:39;;;;;;;21.90;10.07;;;;;;;6.17;100.00;99200.00;4470055;32;20123;-71
2022/12/04 11:27:15;;;;;;;25.15;12.55;;;;;;;6.24;100.00;99192.66;4469783;32;20096;-71
2022/12/04 11:29:44;;;;;;;26.90;13.30;;;;;;;6.31;100.00;99196.50;4468801;32;20593;-71
2022/12/04 11:32:32;;;;;;;30.90;13.68;;;;;;;6.31;100.00;99193.09;4469880;32;20089;-71
2022/12/04 11:35:04;;;;;;;27.37;12.45;;;;;;;6.39;100.00;99196.03;4469918;32;20096;-71
2022/12/04 11:37:33;;;;;;;27.48;14.40;;;;;;;6.45;100.00;99190.44;4468754;32;20177;-71
2022/12/04 11:40:03;;;;;;;27.48;13.50;;;;;;;6.39;100.00;99193.44;4468901;32;20130;-71
2022/12/04 11:42:30;;;;;;;27.55;12.73;;;;;;;6.29;100.00;99192.34;4468920;32;20140;-71
2022/12/04 11:45:00;;;;;;;29.52;12.10;;;;;;;6.28;100.00;99196.72;4468707;32;20103;-71
2022/12/04 11:47:32;;;;;;;24.73;11.40;;;;;;;6.32;100.00;99181.75;4468504;32;20101;-71
2022/12/04 11:50:56;;;;;;;24.27;11.20;;;;;;;6.29;100.00;99176.75;4470105;32;20111;-71